Terminal Aerodrome Forecast
Issued by NWS

Home | Current Version | Previous Version | Graphics & Text | Print | Product List | Glossary On
Versions: 1 2 3 4 5 6 7 8 9 10 11 12 13 14 15 16 17 18 19 20 21 22 23 24 25 26 27 28 29 30 31 32 33 34 35 36
000
FTUS43 KLOT 262300 CCA
TAFORD
TAF COR
KORD 262358Z 2700/2806 19006KT 3SM -FZDZSN BR BKN008 OVC015
      TEMPO 2700/2703 2SM BR
     FM270300 13004KT 4SM BR OVC007
      TEMPO 2703/2707 -FZDZ
     FM271000 03005KT P6SM OVC010
     FM271600 05008KT P6SM OVC015
     FM272000 04006KT P6SM SCT030 BKN250=

USA.gov is the U.S. government's official web portal to all federal, state and local government web resources and services.